Time;durP1;ratioP1;P1;durP2;ratioP2;P2;SDS_P1;SDS_P2;PMS_P1;PMS_P2;Temp;Humidity;BMP_temperature;BMP_pressure;BME280_temperature;BME280_humidity;BME280_pressure;Samples;Min_cycle;Max_cycle;Signal;HPM_P1;HPM_P2
2023/08/05 00:02:07;;;;;;;7.55;6.90;;;;;;;-144.30;55.18;83713.06;5043268;28;20232;-53
2023/08/05 00:05:01;;;;;;;6.93;6.43;;;;;;;-144.30;55.51;83687.22;5042091;28;20193;-49
2023/08/05 00:07:58;;;;;;;8.00;7.22;;;;;;;-144.30;55.72;83713.06;5042316;28;20193;-53
2023/08/05 00:10:57;;;;;;;7.72;6.70;;;;;;;-144.30;56.02;83691.19;5042380;28;20208;-53
2023/08/05 00:17:03;;;;;;;7.60;6.95;;;;;;;-144.30;56.97;83746.84;5041364;28;20220;-48
2023/08/05 00:20:03;;;;;;;7.82;7.05;;;;;;;-144.30;57.50;83770.69;5042452;28;20216;-49
2023/08/05 00:22:59;;;;;;;7.60;6.88;;;;;;;-144.30;58.05;83776.66;5042539;28;20233;-50
2023/08/05 00:25:47;;;;;;;7.45;6.90;;;;;;;-144.30;58.23;83816.38;5043007;28;20230;-50
2023/08/05 00:28:39;;;;;;;7.85;7.15;;;;;;;-144.30;58.73;83790.56;5043105;28;20200;-53
2023/08/05 00:31:26;;;;;;;7.55;6.93;;;;;;;-144.30;59.29;83806.44;5042918;28;20646;-50
2023/08/05 00:34:59;;;;;;;;;;;;;;;;;;;;;
2023/08/05 00:38:20;;;;;;;8.80;7.20;;;;;;;-144.30;60.44;83834.25;5034470;28;20196;-52
2023/08/05 00:41:18;;;;;;;7.47;6.97;;;;;;;-144.30;61.22;83901.81;5040956;28;20288;-54
2023/08/05 00:44:01;;;;;;;8.35;7.47;;;;;;;-144.30;61.33;83842.22;5041375;28;20232;-51
2023/08/05 00:47:02;;;;;;;8.88;8.00;;;;;;;-144.30;61.52;83877.97;5069926;28;20247;-55
2023/08/05 00:49:53;;;;;;;8.65;7.60;;;;;;;-144.30;61.94;83907.78;5091126;28;20198;-50
2023/08/05 00:52:43;;;;;;;8.32;7.53;;;;;;;-144.30;62.42;83925.66;5088604;28;20200;-54
2023/08/05 00:55:46;;;;;;;7.22;6.75;;;;;;;-144.30;62.85;83877.97;5089583;28;20198;-50
2023/08/05 00:58:31;;;;;;;9.02;7.95;;;;;;;-144.30;63.24;83921.69;5090206;28;20722;-54
2023/08/05 01:01:17;;;;;;;8.23;7.72;;;;;;;-144.30;63.84;83941.56;5088400;28;20199;-49
2023/08/05 01:04:10;;;;;;;7.82;7.35;;;;;;;-144.30;64.44;83949.50;5089354;28;20191;-54
2023/08/05 01:07:06;;;;;;;7.30;6.85;;;;;;;-144.30;64.68;84001.19;5090727;28;20675;-54
2023/08/05 01:09:54;;;;;;;8.00;7.40;;;;;;;-144.30;65.47;83969.38;5089837;28;20203;-54
2023/08/05 01:12:41;;;;;;;7.65;7.15;;;;;;;-144.30;65.59;83997.22;5088369;28;20198;-54
2023/08/05 01:15:30;;;;;;;7.82;7.32;;;;;;;-144.30;65.96;83991.25;5087313;28;20283;-54
2023/08/05 01:18:31;;;;;;;8.48;7.93;;;;;;;-144.30;66.25;83985.28;5087797;28;20199;-50
2023/08/05 01:21:28;;;;;;;8.27;7.55;;;;;;;-144.30;66.62;83981.31;5087869;28;20187;-50
2023/08/05 01:24:20;;;;;;;8.45;7.95;;;;;;;-144.30;66.88;83949.50;5090145;28;20282;-54
2023/08/05 01:27:11;;;;;;;8.05;7.55;;;;;;;-144.30;67.15;83945.53;5088701;28;20196;-54
2023/08/05 01:30:08;;;;;;;8.68;7.97;;;;;;;-144.30;67.71;83975.34;5087502;28;20279;-55
2023/08/05 01:33:05;;;;;;;9.05;8.25;;;;;;;-144.30;68.13;83963.44;5089795;28;20195;-55
2023/08/05 01:35:56;;;;;;;9.05;8.13;;;;;;;-144.30;68.47;83981.31;5089403;28;20203;-51
2023/08/05 01:38:49;;;;;;;8.65;7.95;;;;;;;-144.30;68.85;84001.19;5087883;28;20195;-51
2023/08/05 01:41:39;;;;;;;8.93;8.30;;;;;;;-144.30;69.60;83973.38;5087233;28;20195;-50
2023/08/05 01:44:36;;;;;;;8.93;8.13;;;;;;;-144.30;69.83;83953.50;5087958;28;20223;-49
2023/08/05 01:47:08;;;;;;;8.70;8.13;;;;;;;-144.30;70.41;84003.16;5089313;28;20219;-54
2023/08/05 01:49:59;;;;;;;9.05;8.10;;;;;;;-144.30;70.78;83985.28;5089030;28;20641;-51
2023/08/05 01:52:50;;;;;;;9.27;8.52;;;;;;;-144.30;71.39;84017.06;5088004;28;20655;-54
2023/08/05 01:55:48;;;;;;;8.88;8.25;;;;;;;-144.30;71.78;84034.97;5087134;28;20604;-53
2023/08/05 01:58:26;;;;;;;8.35;7.75;;;;;;;-144.30;72.24;84021.06;5090164;28;20198;-54
2023/08/05 02:01:18;;;;;;;9.48;8.77;;;;;;;-144.30;72.73;84013.09;5089723;28;20604;-53
2023/08/05 02:03:59;;;;;;;9.90;9.00;;;;;;;-144.30;73.79;84066.75;5088148;28;20214;-50
2023/08/05 02:06:50;;;;;;;9.30;8.40;;;;;;;-144.30;74.45;84064.78;5087443;28;20187;-54
2023/08/05 02:09:32;;;;;;;10.73;9.30;;;;;;;-144.30;75.33;84078.69;5086553;28;20199;-51
2023/08/05 02:12:30;;;;;;;9.82;9.10;;;;;;;-144.30;76.40;84088.63;5087358;28;20578;-50
2023/08/05 02:15:28;;;;;;;10.45;9.75;;;;;;;-144.30;76.76;84122.41;5086807;28;20199;-50
2023/08/05 02:18:26;;;;;;;9.82;8.93;;;;;;;-144.30;77.09;84120.41;5088615;28;20188;-52
2023/08/05 02:21:17;;;;;;;9.63;8.90;;;;;;;-144.30;78.15;84132.34;5088777;28;20199;-50
2023/08/05 02:24:01;;;;;;;9.55;8.50;;;;;;;-144.30;78.21;84104.50;5087333;28;20207;-54
2023/08/05 02:26:51;;;;;;;10.20;9.52;;;;;;;-144.30;79.20;84094.56;5087434;28;20591;-53
2023/08/05 02:29:48;;;;;;;9.98;9.15;;;;;;;-144.30;80.00;84100.53;5089083;28;20684;-54
2023/08/05 02:35:32;;;;;;;10.40;9.70;;;;;;;-144.30;80.77;84108.50;5084947;28;20196;-53
2023/08/05 02:41:14;;;;;;;10.45;9.43;;;;;;;-144.30;82.94;84116.44;5088526;28;20196;-50
2023/08/05 02:44:04;;;;;;;10.85;10.02;;;;;;;-144.30;83.83;84191.94;5083526;28;20203;-51
2023/08/05 02:47:05;;;;;;;12.20;11.20;;;;;;;-144.30;84.13;84203.88;5087378;28;20246;-54
2023/08/05 02:49:50;;;;;;;10.95;10.05;;;;;;;-144.30;84.67;84187.97;5087999;28;20219;-54
2023/08/05 02:52:42;;;;;;;11.75;10.77;;;;;;;-144.30;84.92;84154.19;5085775;28;20742;-50
2023/08/05 02:55:42;;;;;;;11.73;10.80;;;;;;;-144.30;85.16;84184.00;5086773;28;21084;-54
2023/08/05 02:58:33;;;;;;;12.70;11.52;;;;;;;-144.30;85.99;84156.19;5088104;28;20291;-49
2023/08/05 03:01:43;;;;;;;;;;;;;;;;;;;;;
2023/08/05 03:04:41;;;;;;;12.18;11.18;;;;;;;-144.30;87.86;84158.16;5086663;28;20195;-55
2023/08/05 03:07:32;;;;;;;13.60;12.32;;;;;;;-144.30;88.59;84243.63;5087600;28;20187;-50
2023/08/05 03:10:24;;;;;;;12.88;11.90;;;;;;;-144.30;89.57;84217.78;5085528;28;20196;-49
2023/08/05 03:13:10;;;;;;;16.52;12.43;;;;;;;-144.30;89.81;84207.84;5087887;28;20202;-50
2023/08/05 03:16:06;;;;;;;12.95;11.85;;;;;;;-144.30;89.87;84215.78;5084988;28;20321;-50
2023/08/05 03:18:41;;;;;;;12.50;11.50;;;;;;;-144.30;90.05;84178.03;5087845;28;20207;-51
2023/08/05 03:21:29;;;;;;;13.32;12.23;;;;;;;-144.30;90.75;84217.78;5091168;28;20199;-51
2023/08/05 03:24:18;;;;;;;13.02;11.93;;;;;;;-144.30;90.72;84233.69;5092134;28;20616;-54
2023/08/05 03:27:20;;;;;;;12.75;11.65;;;;;;;-144.30;90.94;84182.00;5090953;28;20663;-54
2023/08/05 03:30:02;;;;;;;13.75;12.50;;;;;;;-144.30;91.31;84195.94;5090329;28;20199;-52
2023/08/05 03:32:57;;;;;;;15.32;13.77;;;;;;;-144.30;92.08;84239.66;5090861;28;20252;-57
2023/08/05 03:35:42;;;;;;;14.02;12.88;;;;;;;-144.30;92.85;84229.72;5090453;28;20231;-54
2023/08/05 03:38:32;;;;;;;14.63;13.20;;;;;;;-144.30;92.91;84219.78;5091368;28;20733;-54
2023/08/05 03:41:25;;;;;;;16.52;13.55;;;;;;;-144.30;93.64;84213.81;5091924;28;20274;-50
2023/08/05 03:44:17;;;;;;;14.80;13.10;;;;;;;-144.30;93.57;84225.75;5092574;28;20680;-54
2023/08/05 03:47:11;;;;;;;17.38;15.07;;;;;;;-144.30;94.72;84259.50;5090079;28;20223;-54
2023/08/05 03:49:41;;;;;;;16.52;14.93;;;;;;;-144.30;95.40;84235.66;5089015;28;20217;-54
2023/08/05 03:52:31;;;;;;;20.27;16.50;;;;;;;-144.30;96.88;84261.50;5092188;28;20191;-50
2023/08/05 03:55:16;;;;;;;23.98;17.90;;;;;;;-144.30;98.00;84281.38;5092103;28;20274;-54
2023/08/05 03:58:11;;;;;;;28.77;18.42;;;;;;;-144.30;98.72;84283.38;5090323;28;20596;-55
2023/08/05 04:00:45;;;;;;;23.48;18.02;;;;;;;-144.30;99.11;84287.34;5089172;28;20693;-54
2023/08/05 04:03:22;;;;;;;28.63;19.45;;;;;;;-144.30;99.23;84291.31;5092289;28;20650;-51
2023/08/05 04:05:51;;;;;;;32.90;19.65;;;;;;;-144.30;99.86;84283.38;5090526;28;20198;-50
2023/08/05 04:08:22;;;;;;;29.23;21.17;;;;;;;-144.30;100.00;84303.25;5092231;28;20202;-50
2023/08/05 04:11:11;;;;;;;27.52;20.20;;;;;;;-144.30;100.00;84273.44;5091340;28;20207;-54
2023/08/05 04:13:46;;;;;;;33.95;20.98;;;;;;;-144.30;100.00;84303.25;5091465;28;20242;-51
2023/08/05 04:16:30;;;;;;;27.30;19.63;;;;;;;-144.30;100.00;84261.50;5071884;28;20284;-50
2023/08/05 04:19:01;;;;;;;32.50;21.58;;;;;;;-144.30;100.00;84263.50;5075955;28;20406;-54
2023/08/05 04:21:45;;;;;;;35.92;22.02;;;;;;;-144.30;100.00;84275.41;5092084;28;20195;-54
2023/08/05 04:24:29;;;;;;;37.67;21.00;;;;;;;-144.30;99.93;84261.50;5092086;28;20195;-54
2023/08/05 04:27:02;;;;;;;32.00;22.27;;;;;;;-144.30;100.00;84235.66;5086993;28;20772;-51
2023/08/05 04:29:41;;;;;;;34.78;21.90;;;;;;;-144.30;99.69;84257.53;5079069;28;20249;-54
2023/08/05 04:32:17;;;;;;;33.35;22.38;;;;;;;-144.30;99.60;84253.56;5091402;28;20203;-55
2023/08/05 04:35:06;;;;;;;37.17;23.85;;;;;;;-144.30;99.69;84251.56;5091505;28;20203;-50
2023/08/05 04:37:34;;;;;;;34.55;22.80;;;;;;;-144.30;99.89;84251.56;5102350;28;20308;-53
2023/08/05 04:40:19;;;;;;;35.95;24.23;;;;;;;-144.30;99.75;84235.66;5088706;28;20210;-55
2023/08/05 04:43:03;;;;;;;38.55;25.42;;;;;;;-144.30;99.37;84287.34;5089135;28;20653;-54
2023/08/05 04:45:54;;;;;;;39.03;24.92;;;;;;;-144.30;98.84;84239.66;5090840;28;20575;-54
2023/08/05 04:48:55;;;;;;;38.42;25.60;;;;;;;-144.30;98.50;84267.47;5090737;28;20265;-51
2023/08/05 04:51:54;;;;;;;31.23;23.13;;;;;;;-144.30;97.82;84203.88;5091235;28;20198;-55
2023/08/05 04:54:41;;;;;;;32.88;23.13;;;;;;;-144.30;97.18;84219.78;5090713;28;20232;-55
2023/08/05 04:57:29;;;;;;;34.53;23.88;;;;;;;-144.30;96.95;84174.06;5091395;28;20862;-54
2023/08/05 04:59:57;;;;;;;31.77;23.85;;;;;;;-144.30;96.73;84186.00;5091394;28;20264;-54
2023/08/05 05:02:46;;;;;;;36.80;23.00;;;;;;;-144.30;95.55;84144.25;5090907;28;20241;-51
2023/08/05 05:05:19;;;;;;;25.85;21.60;;;;;;;-144.30;94.91;84021.06;5091452;28;20256;-54
2023/08/05 05:07:47;;;;;;;31.25;22.90;;;;;;;-144.30;94.51;84120.41;5090476;28;20192;-49
2023/08/05 05:10:15;;;;;;;26.13;21.27;;;;;;;-144.30;92.17;83939.59;5090781;28;20199;-51
2023/08/05 05:12:58;;;;;;;27.13;20.85;;;;;;;-144.30;87.58;83766.72;5090695;28;20199;-54
2023/08/05 05:15:36;;;;;;;25.80;19.52;;;;;;;-144.30;83.49;83568.00;5090750;28;20203;-54
2023/08/05 05:18:08;;;;;;;25.88;20.92;;;;;;;-144.30;80.26;83448.81;5090836;28;20258;-55
2023/08/05 05:21:02;;;;;;;24.70;19.63;;;;;;;-144.30;77.67;83393.16;5090483;28;20616;-52
2023/08/05 05:23:48;;;;;;;27.58;21.20;;;;;;;-144.30;76.15;83270.00;5090081;28;20200;-50
2023/08/05 05:26:26;;;;;;;25.77;20.80;;;;;;;-144.30;72.81;83126.94;5090789;28;20199;-54
2023/08/05 05:28:55;;;;;;;22.15;19.83;;;;;;;-144.30;71.11;83029.59;5090882;28;20209;-54
2023/08/05 05:31:26;;;;;;;22.75;19.38;;;;;;;-144.30;69.81;82977.97;5090589;28;20202;-52
2023/08/05 05:33:55;;;;;;;21.52;19.23;;;;;;;-144.30;70.09;83033.59;5089682;28;20191;-54
2023/08/05 05:36:33;;;;;;;22.23;19.80;;;;;;;-144.30;68.71;82834.94;5086766;28;20191;-50
2023/08/05 05:39:10;;;;;;;21.02;18.88;;;;;;;-144.30;67.49;82838.91;5088134;28;20260;-55
2023/08/05 05:41:52;;;;;;;24.88;21.15;;;;;;;-144.30;67.04;82761.44;5086195;28;20207;-51
2023/08/05 05:44:38;;;;;;;21.33;19.10;;;;;;;-144.30;62.65;82695.88;5088446;28;20502;-51
2023/08/05 05:47:15;;;;;;;18.90;17.00;;;;;;;-144.30;62.20;82811.09;5087687;28;20721;-54
2023/08/05 05:49:42;;;;;;;20.27;18.08;;;;;;;-144.30;62.78;82888.56;5089864;28;20238;-51
2023/08/05 05:52:30;;;;;;;19.90;18.00;;;;;;;-144.30;64.17;82956.09;5090062;28;20750;-51
2023/08/05 05:55:02;;;;;;;21.42;18.98;;;;;;;-144.30;63.07;82864.72;5088880;28;20211;-51
2023/08/05 05:57:36;;;;;;;20.08;18.08;;;;;;;-144.30;62.87;82832.94;5090056;28;20230;-51
2023/08/05 06:00:05;;;;;;;25.00;19.70;;;;;;;-144.30;64.03;83387.22;5090240;28;20290;-52
2023/08/05 06:02:34;;;;;;;29.58;22.88;;;;;;;-144.30;64.31;82948.16;5089414;28;20191;-51
2023/08/05 06:05:05;;;;;;;26.00;23.20;;;;;;;-144.30;62.02;82807.13;5090317;28;20195;-51
2023/08/05 06:07:40;;;;;;;23.08;20.77;;;;;;;-144.30;61.91;82852.81;5088845;28;20203;-51
2023/08/05 06:10:19;;;;;;;24.65;20.73;;;;;;;-144.30;61.35;82741.56;5089986;28;20195;-51
2023/08/05 06:12:47;;;;;;;21.17;19.08;;;;;;;-144.30;59.68;82634.31;5090087;28;20206;-54
2023/08/05 06:15:17;;;;;;;23.20;20.45;;;;;;;-144.30;59.32;82527.03;5089970;28;20233;-54
2023/08/05 06:17:46;;;;;;;20.75;18.65;;;;;;;-144.30;59.74;82769.38;5088958;28;20215;-50
2023/08/05 06:20:16;;;;;;;23.65;19.77;;;;;;;-144.30;59.86;82642.25;5087062;28;20202;-53
2023/08/05 06:22:50;;;;;;;18.73;16.92;;;;;;;-144.30;58.29;82525.06;5089494;28;20723;-53
2023/08/05 06:25:30;;;;;;;19.23;17.10;;;;;;;-144.30;56.76;82397.94;5089665;28;20202;-53
2023/08/05 06:28:07;;;;;;;18.83;17.02;;;;;;;-144.30;55.59;82429.72;5089657;28;20300;-50
2023/08/05 06:30:38;;;;;;;18.98;17.15;;;;;;;-144.30;56.38;82395.94;5089409;28;20566;-54
2023/08/05 06:33:06;;;;;;;16.30;14.77;;;;;;;-144.30;54.74;82237.06;5089413;28;20187;-50
2023/08/05 06:35:36;;;;;;;17.05;15.13;;;;;;;-144.30;54.31;82252.94;5088157;28;20199;-51
2023/08/05 06:38:07;;;;;;;15.23;14.07;;;;;;;-144.30;55.24;82352.25;5089359;28;20223;-54
2023/08/05 06:40:44;;;;;;;12.88;11.98;;;;;;;-144.30;54.08;82340.34;5089603;28;20199;-54
2023/08/05 06:43:16;;;;;;;14.52;13.35;;;;;;;-144.30;56.53;82491.28;5089580;28;20202;-51
2023/08/05 06:45:51;;;;;;;14.00;12.90;;;;;;;-144.30;55.66;82395.94;5089002;28;20199;-50
2023/08/05 06:48:36;;;;;;;11.77;10.65;;;;;;;-144.30;53.73;82292.66;5089179;28;20202;-54
2023/08/05 06:51:26;;;;;;;11.50;10.73;;;;;;;-144.30;53.68;82314.50;5081195;28;20200;-50
2023/08/05 06:54:25;;;;;;;12.52;10.93;;;;;;;-144.30;53.30;82191.38;5068810;28;20262;-50
2023/08/05 06:57:21;;;;;;;12.23;11.32;;;;;;;-144.30;53.22;82191.38;5069149;28;20199;-56
2023/08/05 07:00:06;;;;;;;12.57;11.55;;;;;;;-144.30;53.10;82266.84;5069132;28;20211;-55
2023/08/05 07:03:01;;;;;;;11.70;10.73;;;;;;;-144.30;52.81;82239.03;5069204;28;20199;-51
2023/08/05 07:05:36;;;;;;;11.32;10.43;;;;;;;-144.30;52.39;82201.31;5071709;28;20272;-56
2023/08/05 07:08:07;;;;;;;11.75;10.95;;;;;;;-144.30;51.88;82115.91;5088960;28;20205;-55
2023/08/05 07:10:44;;;;;;;11.90;10.85;;;;;;;-144.30;52.01;82127.81;5088626;28;20187;-55
2023/08/05 07:13:31;;;;;;;12.73;10.80;;;;;;;-144.30;51.25;82056.31;5087419;28;20252;-51
2023/08/05 07:16:18;;;;;;;11.85;10.95;;;;;;;-144.30;53.30;82332.38;5088014;28;20198;-50
2023/08/05 07:19:01;;;;;;;10.57;9.70;;;;;;;-144.30;51.54;82245.00;5087581;28;20702;-51
2023/08/05 07:21:38;;;;;;;10.07;9.27;;;;;;;-144.30;49.95;82149.66;5088385;28;20195;-52
2023/08/05 07:24:30;;;;;;;10.15;9.30;;;;;;;-144.30;49.44;82163.56;5088207;28;20190;-50
2023/08/05 07:27:39;;;;;;;10.88;10.07;;;;;;;-144.30;48.54;82016.59;5089388;28;20566;-52
2023/08/05 07:30:34;;;;;;;11.63;10.50;;;;;;;-144.30;47.47;81889.50;5087640;28;20195;-51
2023/08/05 07:33:23;;;;;;;12.20;11.20;;;;;;;-144.30;45.95;81772.34;5089306;28;20720;-55
2023/08/05 07:36:15;;;;;;;12.60;11.50;;;;;;;-144.30;45.96;81788.22;5088025;28;20235;-51
2023/08/05 07:39:07;;;;;;;12.05;11.15;;;;;;;-144.30;44.79;81601.56;5088430;28;20258;-52
2023/08/05 07:42:05;;;;;;;13.57;12.30;;;;;;;-144.30;43.63;81545.97;5088037;28;20269;-51
2023/08/05 07:45:14;;;;;;;10.85;10.02;;;;;;;-144.30;42.41;81462.56;5088920;28;20231;-54
2023/08/05 07:48:09;;;;;;;12.95;10.38;;;;;;;-144.30;43.10;81466.53;5088210;28;20801;-54
2023/08/05 07:53:57;;;;;;;11.02;9.35;;;;;;;-144.30;43.39;81526.09;5088670;28;20198;-51
2023/08/05 07:59:38;;;;;;;17.58;9.68;;;;;;;-144.30;40.78;81077.34;5088739;28;20309;-51
2023/08/05 08:02:43;;;;;;;10.20;7.93;;;;;;;-144.30;40.73;81365.25;5089200;28;20251;-50
2023/08/05 08:05:38;;;;;;;9.48;8.88;;;;;;;-144.30;39.53;81166.69;5088763;28;20237;-52
2023/08/05 08:08:14;;;;;;;10.82;9.93;;;;;;;-144.30;40.74;81262.00;5092740;28;20722;-54
2023/08/05 08:11:07;;;;;;;10.43;9.63;;;;;;;-144.30;40.09;81200.47;5088847;28;20199;-54
2023/08/05 08:13:52;;;;;;;9.75;9.13;;;;;;;-144.30;39.03;80972.13;5092393;28;20235;-51
2023/08/05 08:20:02;;;;;;;9.93;9.02;;;;;;;-144.30;37.63;81021.75;5091760;28;20333;-50
2023/08/05 08:23:00;;;;;;;10.05;9.05;;;;;;;-144.30;38.08;81152.81;5091689;28;20599;-50
2023/08/05 08:26:10;;;;;;;10.68;9.68;;;;;;;-144.30;38.81;81250.09;5092017;28;20191;-55
2023/08/05 08:28:44;;;;;;;9.75;9.15;;;;;;;-144.30;39.84;81359.31;5091940;28;20311;-52
2023/08/05 08:34:41;;;;;;;9.98;9.23;;;;;;;-144.30;41.20;81591.63;5072938;28;20277;-53
2023/08/05 08:37:34;;;;;;;10.02;9.23;;;;;;;-144.30;41.66;81635.31;5091912;28;20264;-51
2023/08/05 08:40:22;;;;;;;10.30;9.30;;;;;;;-144.30;40.38;81547.94;5090362;28;20203;-54
2023/08/05 08:43:19;;;;;;;10.57;9.23;;;;;;;-144.30;39.92;81587.66;5091440;28;20225;-54
2023/08/05 08:49:08;;;;;;;10.60;8.85;;;;;;;-144.30;40.00;81742.53;5083037;28;20214;-55
2023/08/05 08:52:04;;;;;;;8.70;8.10;;;;;;;-144.30;40.07;81510.22;5090544;28;20220;-54
2023/08/05 08:55:09;;;;;;;10.00;8.57;;;;;;;-144.30;40.11;81522.13;5089709;28;20230;-54
2023/08/05 08:58:07;;;;;;;11.93;7.85;;;;;;;-144.30;40.19;81555.88;5091560;28;20671;-54
2023/08/05 09:00:51;;;;;;;8.32;7.75;;;;;;;-144.30;40.73;81796.16;5090965;28;20192;-54
2023/08/05 09:03:47;;;;;;;;;;;;;;;;;;;;;
2023/08/05 09:06:43;;;;;;;7.88;7.25;;;;;;;-144.30;39.94;81778.28;5090189;28;20195;-54
2023/08/05 09:09:30;;;;;;;8.60;7.70;;;;;;;-144.30;40.91;81800.13;5089113;28;20211;-52
2023/08/05 09:12:30;;;;;;;8.40;7.65;;;;;;;-144.30;40.97;81875.59;5089562;28;20197;-51
2023/08/05 09:14:58;;;;;;;8.60;7.90;;;;;;;-144.30;41.15;81847.78;5090577;28;20199;-51
2023/08/05 09:18:05;;;;;;;8.82;8.07;;;;;;;-144.30;40.47;81800.13;5091058;28;20217;-51
2023/08/05 09:20:45;;;;;;;9.38;8.45;;;;;;;-144.30;39.77;81835.88;5090125;28;20198;-50
2023/08/05 09:23:39;;;;;;;9.55;8.60;;;;;;;-144.30;39.88;81814.03;5091067;28;20205;-51
2023/08/05 09:26:36;;;;;;;8.23;7.55;;;;;;;-144.30;39.58;81740.56;5089544;28;20200;-52
2023/08/05 09:29:42;;;;;;;9.35;8.48;;;;;;;-144.30;40.01;81855.75;5090609;28;20191;-50
2023/08/05 09:34:56;;;;;;;9.80;8.65;;;;;;;-144.30;39.62;81857.72;5090715;28;20206;-53
2023/08/05 09:37:46;;;;;;;9.25;8.68;;;;;;;-144.30;38.63;81696.88;5090716;28;20249;-54
2023/08/05 09:40:46;;;;;;;9.32;8.63;;;;;;;-144.30;38.58;81704.81;5090266;28;20230;-54
2023/08/05 09:43:31;;;;;;;8.85;8.10;;;;;;;-144.30;38.63;81700.84;5089997;28;20652;-53
2023/08/05 09:46:25;;;;;;;8.50;7.95;;;;;;;-144.30;37.21;81567.78;5090218;28;20224;-54
2023/08/05 09:49:17;;;;;;;9.13;8.43;;;;;;;-144.30;38.31;81750.50;5089978;28;20199;-50
2023/08/05 09:51:49;;;;;;;8.98;8.25;;;;;;;-144.30;37.55;81708.78;5086900;28;20191;-52
2023/08/05 09:54:32;;;;;;;13.13;9.07;;;;;;;-144.30;37.48;81718.72;5089452;28;20532;-54
2023/08/05 09:57:15;;;;;;;8.43;7.40;;;;;;;-144.30;37.68;81736.59;5089964;28;20191;-56
2023/08/05 09:59:50;;;;;;;7.78;7.35;;;;;;;-144.30;37.70;81857.72;5088040;28;20244;-50
2023/08/05 10:02:25;;;;;;;8.73;7.82;;;;;;;-144.30;37.67;81714.75;5086964;28;20569;-54
2023/08/05 10:04:56;;;;;;;7.63;7.05;;;;;;;-144.30;37.21;81706.81;5089937;28;20662;-51
2023/08/05 10:07:30;;;;;;;9.13;7.78;;;;;;;-144.30;36.24;81540.00;5089578;28;20198;-55
2023/08/05 10:10:07;;;;;;;10.30;7.25;;;;;;;-144.30;36.24;81637.31;5087170;28;20221;-55
2023/08/05 10:12:45;;;;;;;7.20;6.70;;;;;;;-144.30;36.24;81780.28;5087261;28;20244;-54
2023/08/05 10:15:27;;;;;;;7.45;6.65;;;;;;;-144.30;36.25;81863.69;5086934;28;20592;-50
2023/08/05 10:18:22;;;;;;;6.75;6.15;;;;;;;-144.30;36.42;81873.63;5087321;28;20191;-51
2023/08/05 10:21:09;;;;;;;7.18;6.47;;;;;;;-144.30;36.59;81768.38;5089525;28;20235;-50
2023/08/05 10:23:49;;;;;;;7.85;6.63;;;;;;;-144.30;36.69;81839.84;5090214;28;20203;-54
2023/08/05 10:26:40;;;;;;;9.65;6.63;;;;;;;-144.30;37.04;81774.31;5088472;28;20203;-54
2023/08/05 10:29:31;;;;;;;8.13;6.90;;;;;;;-144.30;36.50;81857.72;5087838;28;20196;-54
2023/08/05 10:32:21;;;;;;;6.70;6.10;;;;;;;-144.30;37.33;81935.19;5088895;28;20203;-54
2023/08/05 10:35:31;;;;;;;6.63;6.13;;;;;;;-144.30;38.12;81945.09;5087527;28;20206;-51
2023/08/05 10:38:22;;;;;;;6.90;6.30;;;;;;;-144.30;37.50;81959.00;5084160;28;20594;-51
2023/08/05 10:41:07;;;;;;;6.47;5.80;;;;;;;-144.30;37.28;81957.03;5086659;28;20282;-54
2023/08/05 10:43:49;;;;;;;6.38;5.35;;;;;;;-144.30;37.23;82036.47;5089487;28;20199;-51
2023/08/05 10:46:22;;;;;;;5.80;5.20;;;;;;;-144.30;37.76;81957.03;5079448;28;20203;-53
2023/08/05 10:49:08;;;;;;;5.75;5.35;;;;;;;-144.30;37.52;82016.59;5072727;28;20199;-54
2023/08/05 10:51:50;;;;;;;7.97;5.53;;;;;;;-144.30;37.20;82022.56;5088831;28;20210;-50
2023/08/05 10:54:31;;;;;;;7.28;5.95;;;;;;;-144.30;37.30;82044.41;5087683;28;20203;-53
2023/08/05 10:57:38;;;;;;;9.40;5.53;;;;;;;-144.30;36.75;82034.47;5088188;28;20198;-54
2023/08/05 11:00:39;;;;;;;6.78;6.32;;;;;;;-144.30;37.10;81998.72;5087656;28;20233;-54
2023/08/05 11:03:39;;;;;;;5.60;5.25;;;;;;;-144.30;37.28;82030.50;5089325;28;20198;-50
2023/08/05 11:06:17;;;;;;;6.28;5.78;;;;;;;-144.30;36.58;82032.50;5084037;28;20722;-51
2023/08/05 11:09:12;;;;;;;5.30;5.00;;;;;;;-144.30;35.78;82113.91;5087698;28;20283;-53
2023/08/05 11:11:41;;;;;;;5.57;5.18;;;;;;;-144.30;35.90;82100.00;5087995;28;20578;-53
2023/08/05 11:14:27;;;;;;;5.03;4.72;;;;;;;-144.30;36.35;82072.22;5088231;28;20241;-53
2023/08/05 11:17:05;;;;;;;7.47;5.30;;;;;;;-144.30;36.01;82119.88;5085879;28;20675;-50
2023/08/05 11:19:55;;;;;;;5.63;5.13;;;;;;;-144.30;36.13;82064.28;5085308;28;20230;-51
2023/08/05 11:22:37;;;;;;;5.95;5.50;;;;;;;-144.30;36.09;82054.34;5086962;28;20202;-54
2023/08/05 11:25:08;;;;;;;5.35;4.30;;;;;;;-144.30;35.66;82028.53;5087468;28;20252;-54
2023/08/05 11:27:49;;;;;;;4.93;4.40;;;;;;;-144.30;35.97;81986.81;5088652;28;20671;-49
2023/08/05 11:30:26;;;;;;;5.20;4.90;;;;;;;-144.30;35.88;81990.78;5088763;28;20191;-50
2023/08/05 11:32:59;;;;;;;5.53;5.05;;;;;;;-144.30;35.51;81992.78;5088641;28;20324;-53
2023/08/05 11:35:33;;;;;;;7.60;5.03;;;;;;;-144.30;35.65;81998.72;5088461;28;20269;-55
2023/08/05 11:38:21;;;;;;;5.53;5.00;;;;;;;-144.30;36.11;81992.78;5088658;28;20622;-50
2023/08/05 11:40:52;;;;;;;7.57;4.85;;;;;;;-144.30;35.43;82012.63;5091833;28;20203;-51
2023/08/05 11:43:21;;;;;;;4.72;4.43;;;;;;;-144.30;34.81;81941.13;5089069;28;20199;-50
2023/08/05 11:45:51;;;;;;;6.20;5.28;;;;;;;-144.30;34.79;81970.94;5091762;28;20253;-49
2023/08/05 11:48:29;;;;;;;4.82;4.55;;;;;;;-144.30;34.48;81935.19;5088778;28;20230;-52
2023/08/05 11:51:04;;;;;;;7.85;4.45;;;;;;;-144.30;34.64;81925.25;5089875;28;20202;-57
2023/08/05 11:53:32;;;;;;;4.82;4.60;;;;;;;-144.30;34.52;81903.41;5089865;28;20670;-50
2023/08/05 11:56:27;;;;;;;6.00;4.72;;;;;;;-144.30;34.74;81998.72;5092202;28;20199;-51
2023/08/05 11:58:59;;;;;;;5.10;4.50;;;;;;;-144.30;34.45;81843.81;5092001;28;20222;-50
2023/08/05 12:01:46;;;;;;;10.75;5.38;;;;;;;-144.30;34.14;81873.63;5091955;28;20597;-51
2023/08/05 12:04:28;;;;;;;5.22;4.60;;;;;;;-144.30;33.89;81879.56;5091815;28;20199;-55
2023/08/05 12:07:20;;;;;;;5.25;4.72;;;;;;;-144.30;34.54;81871.63;5091894;28;20202;-51
2023/08/05 12:10:09;;;;;;;8.73;5.30;;;;;;;-144.30;34.40;81893.47;5091037;28;20199;-49
2023/08/05 12:12:55;;;;;;;5.70;5.10;;;;;;;-144.30;34.38;81901.41;5090886;28;20253;-53
2023/08/05 12:15:33;;;;;;;7.30;5.03;;;;;;;-144.30;34.43;81891.50;5090642;28;20195;-53
2023/08/05 12:18:11;;;;;;;5.45;4.90;;;;;;;-144.30;34.83;81919.28;5091269;28;20199;-53
2023/08/05 12:20:52;;;;;;;5.60;5.10;;;;;;;-144.30;34.72;81869.66;5091339;28;20226;-54
2023/08/05 12:23:34;;;;;;;9.18;5.15;;;;;;;-144.30;34.28;81877.59;5091581;28;20231;-55
2023/08/05 12:26:03;;;;;;;6.30;4.85;;;;;;;-144.30;34.51;81833.91;5089616;28;20211;-54
2023/08/05 12:28:38;;;;;;;7.25;6.43;;;;;;;-144.30;34.42;81839.84;5091728;28;20281;-50
2023/08/05 12:31:08;;;;;;;7.22;4.72;;;;;;;-144.30;34.32;81825.94;5091457;28;20194;-53
2023/08/05 12:33:57;;;;;;;8.05;5.85;;;;;;;-144.30;34.50;81875.59;5091283;28;20198;-55
2023/08/05 12:36:38;;;;;;;9.90;5.85;;;;;;;-144.30;34.54;81891.50;5091537;28;20615;-55
2023/08/05 12:39:19;;;;;;;5.93;5.40;;;;;;;-144.30;34.89;81901.41;5091525;28;20305;-52
2023/08/05 12:42:01;;;;;;;9.20;5.70;;;;;;;-144.30;34.74;81837.88;5091311;28;20240;-54
2023/08/05 12:44:59;;;;;;;5.63;5.30;;;;;;;-144.30;34.91;81891.50;5091453;28;20618;-54
2023/08/05 12:47:47;;;;;;;6.18;5.63;;;;;;;-144.30;34.83;81820.00;5089861;28;20759;-51
2023/08/05 12:50:43;;;;;;;6.15;5.07;;;;;;;-144.30;34.30;81831.91;5090803;28;20191;-54
2023/08/05 12:53:34;;;;;;;6.53;5.55;;;;;;;-144.30;34.06;81855.75;5090479;28;20195;-54
2023/08/05 12:56:22;;;;;;;6.18;5.78;;;;;;;-144.30;34.04;81796.16;5089313;28;20583;-53
2023/08/05 12:59:17;;;;;;;6.70;5.40;;;;;;;-144.30;33.35;81740.56;5090810;28;20203;-54
2023/08/05 13:02:06;;;;;;;5.25;4.97;;;;;;;-144.30;33.07;81740.56;5090698;28;20202;-53
2023/08/05 13:04:47;;;;;;;7.63;5.35;;;;;;;-144.30;33.19;81756.44;5090821;28;20202;-51
2023/08/05 13:07:45;;;;;;;;;;;;;;;;;;;;;